createdAt,value
2017-05-13T15:59:53.771Z,1006.66
2017-05-13T16:00:55.201Z,1006.53
2017-05-13T16:01:56.617Z,1006.53
2017-05-13T16:02:58.033Z,1006.56
2017-05-13T16:03:59.451Z,1006.51
2017-05-13T16:05:00.870Z,1006.53
2017-05-13T16:06:05.985Z,1006.56
2017-05-13T16:07:07.431Z,1006.54
2017-05-13T16:08:08.847Z,1006.52
2017-05-13T16:09:10.290Z,1006.60
2017-05-13T16:10:11.706Z,1006.55
2017-05-13T16:11:13.126Z,1006.61
2017-05-13T16:12:14.546Z,1006.63
2017-05-13T16:13:15.967Z,1006.61
2017-05-13T16:14:17.394Z,1006.66
2017-05-13T16:15:18.824Z,1006.62
2017-05-13T16:16:20.276Z,1006.63
2017-05-13T16:17:21.712Z,1006.61
2017-05-13T16:18:23.129Z,1006.65
2017-05-13T16:19:24.572Z,1006.60
2017-05-13T16:20:26.000Z,1006.61
2017-05-13T16:21:27.430Z,1006.60
2017-05-13T16:22:28.859Z,1006.64
2017-05-13T16:23:30.288Z,1006.69
2017-05-13T16:24:31.707Z,1006.68
2017-05-13T16:25:33.127Z,1006.69
2017-05-13T16:26:34.559Z,1006.70
2017-05-13T16:27:35.982Z,1006.74
2017-05-13T16:28:37.403Z,1006.73
2017-05-13T16:29:38.863Z,1006.76
2017-05-13T16:30:40.278Z,1006.69
2017-05-13T16:31:41.861Z,1006.74
2017-05-13T16:32:43.279Z,1006.72
2017-05-13T16:33:44.721Z,1006.73
2017-05-13T16:34:46.181Z,1006.74
2017-05-13T16:35:47.633Z,1006.78
2017-05-13T16:36:49.074Z,1006.76
2017-05-13T16:37:50.495Z,1006.80
2017-05-13T16:38:52.011Z,1006.79
2017-05-13T16:39:53.484Z,1006.79
2017-05-13T16:40:54.908Z,1006.80
2017-05-13T16:41:56.340Z,1006.81
2017-05-13T16:42:57.775Z,1006.81
2017-05-13T16:43:59.233Z,1006.81
2017-05-13T16:45:00.648Z,1006.82
2017-05-13T16:46:02.091Z,1006.81
2017-05-13T16:47:03.552Z,1006.86
2017-05-13T16:48:04.971Z,1006.80
2017-05-13T16:49:06.396Z,1006.80
2017-05-13T16:50:07.808Z,1006.84
2017-05-13T16:51:09.230Z,1006.87
2017-05-13T16:52:10.653Z,1006.83
2017-05-13T16:53:12.075Z,1006.88
2017-05-13T16:54:13.493Z,1006.90
2017-05-13T16:55:14.910Z,1006.90
2017-05-13T16:56:16.331Z,1006.89
2017-05-13T16:57:17.755Z,1006.94
2017-05-13T16:58:19.176Z,1006.92
2017-05-13T16:59:20.584Z,1006.99
2017-05-13T17:00:22.003Z,1006.94
2017-05-13T17:01:23.420Z,1006.99
2017-05-13T17:02:24.837Z,1006.99
2017-05-13T17:03:26.260Z,1007.03
2017-05-13T17:04:27.681Z,1007.07
2017-05-13T17:05:29.134Z,1007.07
2017-05-13T17:06:31.863Z,1007.09
2017-05-13T17:07:33.242Z,1007.09
2017-05-13T17:08:34.666Z,1007.15
2017-05-13T17:09:36.086Z,1007.11
2017-05-13T17:10:38.367Z,1007.16
2017-05-13T17:11:39.794Z,1007.20
2017-05-13T17:12:41.484Z,1007.18
2017-05-13T17:13:42.899Z,1007.21
2017-05-13T17:14:44.317Z,1007.21
2017-05-13T17:15:45.861Z,1007.19
2017-05-13T17:16:47.277Z,1007.23
2017-05-13T17:17:48.714Z,1007.21
2017-05-13T17:18:50.204Z,1007.24
2017-05-13T17:19:51.887Z,1007.25
2017-05-13T17:20:53.304Z,1007.26
2017-05-13T17:21:56.839Z,1007.26
2017-05-13T17:22:58.283Z,1007.25
2017-05-13T17:24:04.117Z,1007.25
2017-05-13T17:25:05.569Z,1007.23
2017-05-13T17:26:46.518Z,1007.03
2017-05-13T17:27:47.932Z,1007.07
2017-05-13T17:29:11.625Z,1007.11
2017-05-13T17:46:51.988Z,1007.20
2017-05-13T17:47:53.403Z,1007.17
2017-05-13T17:49:14.976Z,1007.22
2017-05-13T17:50:17.106Z,1007.23
2017-05-13T17:51:38.934Z,1007.22
2017-05-13T17:52:40.353Z,1007.21
2017-05-13T17:54:01.984Z,1007.30
2017-05-13T17:55:03.407Z,1007.26
2017-05-13T17:56:24.981Z,1007.27
2017-05-13T17:57:26.396Z,1007.28
2017-05-13T17:58:48.381Z,1007.32
2017-05-13T17:59:49.771Z,1007.33
2017-05-13T18:01:11.368Z,1007.37
2017-05-13T18:02:12.786Z,1007.37
2017-05-13T18:03:34.362Z,1007.40
2017-05-13T18:04:35.810Z,1007.43
2017-05-13T18:05:57.975Z,1007.44
2017-05-13T18:06:59.840Z,1007.46
2017-05-13T18:08:21.455Z,1007.49
2017-05-13T18:09:22.873Z,1007.49
2017-05-13T18:10:45.024Z,1007.49
2017-05-13T18:11:46.450Z,1007.51
2017-05-13T18:13:08.028Z,1007.52
2017-05-13T18:14:09.457Z,1007.53
2017-05-13T18:15:31.076Z,1007.59
2017-05-13T18:16:32.494Z,1007.61
2017-05-13T18:17:54.009Z,1007.66
2017-05-13T18:18:55.427Z,1007.66
2017-05-13T18:20:17.030Z,1007.65
2017-05-13T18:21:18.508Z,1007.73
2017-05-13T18:22:40.974Z,1007.73
2017-05-13T18:23:43.999Z,1007.75
2017-05-13T18:24:45.366Z,1007.79
2017-05-13T18:25:46.787Z,1007.80
2017-05-13T18:26:48.207Z,1007.83
2017-05-13T18:27:49.669Z,1007.83
2017-05-13T18:28:51.088Z,1007.86
2017-05-13T18:29:52.509Z,1007.88
2017-05-13T18:30:53.926Z,1007.92
2017-05-13T18:31:55.343Z,1007.88
2017-05-13T18:32:56.803Z,1007.87
2017-05-13T18:33:58.220Z,1007.92
2017-05-13T18:34:59.646Z,1007.88
2017-05-13T18:36:01.065Z,1007.92
2017-05-13T18:37:02.489Z,1007.93
2017-05-13T18:38:03.909Z,1007.93
2017-05-13T18:39:05.378Z,1007.97
2017-05-13T18:40:06.815Z,1007.96
2017-05-13T18:41:08.256Z,1008.00
2017-05-13T18:42:10.520Z,1008.02
2017-05-13T18:43:11.950Z,1007.99
2017-05-13T18:44:13.371Z,1008.01
2017-05-13T18:45:14.790Z,1008.04
2017-05-13T18:46:16.210Z,1008.03
2017-05-13T18:47:17.624Z,1008.07
2017-05-13T18:48:19.042Z,1008.10
2017-05-13T18:49:20.468Z,1008.14
2017-05-13T18:50:21.914Z,1008.16
2017-05-13T18:51:23.368Z,1008.19
2017-05-13T18:52:24.788Z,1008.19
2017-05-13T18:53:26.206Z,1008.23
2017-05-13T18:54:27.633Z,1008.24
2017-05-13T18:55:29.048Z,1008.25
2017-05-13T18:56:30.469Z,1008.27
2017-05-13T18:57:31.893Z,1008.30
2017-05-13T18:58:33.312Z,1008.31
2017-05-13T18:59:34.751Z,1008.36
2017-05-13T19:00:36.263Z,1008.34
2017-05-13T19:01:37.681Z,1008.31
2017-05-13T19:02:39.101Z,1008.35
2017-05-13T19:03:40.520Z,1008.38
2017-05-13T19:04:41.966Z,1008.38
2017-05-13T19:05:43.381Z,1008.41
2017-05-13T19:06:44.795Z,1008.42
2017-05-13T19:07:46.214Z,1008.45
2017-05-13T19:08:47.632Z,1008.57
2017-05-13T19:09:49.050Z,1008.59
2017-05-13T19:10:50.468Z,1008.59
2017-05-13T19:11:51.889Z,1008.65
2017-05-13T19:12:53.307Z,1008.69
2017-05-13T19:13:54.725Z,1008.74
2017-05-13T19:14:56.141Z,1008.71
2017-05-13T19:15:57.558Z,1008.76
2017-05-13T19:16:58.976Z,1008.75
2017-05-13T19:18:00.396Z,1008.78
2017-05-13T19:19:01.817Z,1008.80
2017-05-13T19:20:03.234Z,1008.89
2017-05-13T19:21:04.656Z,1008.92
2017-05-13T19:22:06.069Z,1008.94
2017-05-13T19:23:07.488Z,1008.98
2017-05-13T19:24:08.908Z,1008.96
2017-05-13T19:25:10.323Z,1009.03
2017-05-13T19:26:11.881Z,1009.07
2017-05-13T19:27:13.303Z,1009.11
2017-05-13T19:28:15.051Z,1009.16
2017-05-13T19:29:16.468Z,1009.14
2017-05-13T19:30:18.042Z,1009.15
2017-05-13T19:31:19.459Z,1009.17
2017-05-13T19:32:20.938Z,1009.18
2017-05-13T19:33:22.357Z,1009.18
2017-05-13T19:34:23.778Z,1009.20
2017-05-13T19:35:25.191Z,1009.21
2017-05-13T19:36:26.613Z,1009.26
2017-05-13T19:37:28.097Z,1009.30
2017-05-13T19:38:29.469Z,1009.31
2017-05-13T19:39:30.972Z,1009.34
2017-05-13T19:40:32.389Z,1009.35
2017-05-13T19:41:33.808Z,1009.37
2017-05-13T19:42:35.252Z,1009.44
2017-05-13T19:43:36.690Z,1009.47
2017-05-13T19:44:38.105Z,1009.45
2017-05-13T19:45:39.521Z,1009.52
2017-05-13T19:46:40.941Z,1009.53
2017-05-13T19:47:42.379Z,1009.53
2017-05-13T19:48:43.778Z,1009.58
2017-05-13T19:49:45.194Z,1009.65
2017-05-13T19:50:46.620Z,1009.63
2017-05-13T19:51:48.037Z,1009.70
2017-05-13T19:52:49.451Z,1009.67
2017-05-13T19:53:50.870Z,1009.68
2017-05-13T19:54:52.289Z,1009.74
2017-05-13T19:55:53.708Z,1009.76
2017-05-13T19:56:55.120Z,1009.76
2017-05-13T19:57:56.537Z,1009.81
2017-05-13T19:58:57.953Z,1009.77
2017-05-13T19:59:59.374Z,1009.79
2017-05-13T20:01:00.793Z,1009.86
2017-05-13T20:02:02.210Z,1009.83
2017-05-13T20:03:03.630Z,1009.85
2017-05-13T20:04:05.044Z,1009.89
2017-05-13T20:05:08.325Z,1009.95
2017-05-13T20:06:09.651Z,1009.95
2017-05-13T20:07:11.066Z,1009.91
2017-05-13T20:08:12.524Z,1009.92
2017-05-13T20:09:13.903Z,1009.96
2017-05-13T20:10:15.322Z,1009.95
2017-05-13T20:11:16.737Z,1010.02
2017-05-13T20:12:18.847Z,1010.02
2017-05-13T20:13:20.215Z,1010.06
2017-05-13T20:14:21.631Z,1010.09
2017-05-13T20:15:23.047Z,1010.07
2017-05-13T20:16:24.467Z,1010.15
2017-05-13T20:17:25.888Z,1010.18
2017-05-13T20:18:27.301Z,1010.13
2017-05-13T20:19:28.717Z,1010.16
2017-05-13T20:20:30.144Z,1010.20
2017-05-13T20:21:31.552Z,1010.15
2017-05-13T20:22:32.970Z,1010.14
2017-05-13T20:23:34.401Z,1010.18
2017-05-13T20:24:35.821Z,1010.16
2017-05-13T20:25:37.238Z,1010.17
2017-05-13T20:26:38.653Z,1010.17
2017-05-13T20:27:40.069Z,1010.19
2017-05-13T20:28:41.490Z,1010.20
2017-05-13T20:29:42.906Z,1010.25
2017-05-13T20:30:44.326Z,1010.24
2017-05-13T20:31:45.750Z,1010.24
2017-05-13T20:32:47.161Z,1010.26
2017-05-13T20:33:48.577Z,1010.29
2017-05-13T20:34:49.997Z,1010.30
2017-05-13T20:35:51.414Z,1010.36
2017-05-13T20:36:52.831Z,1010.35
2017-05-13T20:37:54.250Z,1010.42
2017-05-13T20:38:55.669Z,1010.44
2017-05-13T20:39:57.086Z,1010.41
2017-05-13T20:40:58.501Z,1010.39
2017-05-13T20:41:59.917Z,1010.46
2017-05-13T20:43:01.335Z,1010.46
2017-05-13T20:44:02.754Z,1010.47
2017-05-13T20:45:04.173Z,1010.46
2017-05-13T20:46:05.593Z,1010.49
2017-05-13T20:47:07.096Z,1010.51
2017-05-13T20:48:08.511Z,1010.49
2017-05-13T20:49:09.927Z,1010.52
2017-05-13T20:50:11.344Z,1010.49
2017-05-13T20:51:12.763Z,1010.51
2017-05-13T20:52:14.182Z,1010.52
2017-05-13T20:53:15.599Z,1010.57
2017-05-13T20:54:17.015Z,1010.56
2017-05-13T20:55:18.432Z,1010.54
2017-05-13T20:56:19.850Z,1010.55
2017-05-13T20:57:21.267Z,1010.52
2017-05-13T20:58:22.683Z,1010.57
2017-05-13T20:59:24.103Z,1010.59
2017-05-13T21:00:25.523Z,1010.56
2017-05-13T21:01:26.941Z,1010.56
2017-05-13T21:02:28.354Z,1010.59
2017-05-13T21:03:29.769Z,1010.58
2017-05-13T21:04:31.188Z,1010.60
2017-05-13T21:05:32.604Z,1010.58
2017-05-13T21:06:34.023Z,1010.60
2017-05-13T21:07:35.443Z,1010.58
2017-05-13T21:08:36.858Z,1010.58
2017-05-13T21:09:38.279Z,1010.57
2017-05-13T21:10:39.695Z,1010.59
2017-05-13T21:11:41.109Z,1010.59
2017-05-13T21:12:42.528Z,1010.58
2017-05-13T21:13:43.949Z,1010.58
2017-05-13T21:14:45.370Z,1010.60
2017-05-13T21:15:46.783Z,1010.59
2017-05-13T21:16:48.200Z,1010.61
2017-05-13T21:17:49.617Z,1010.59
2017-05-13T21:18:51.036Z,1010.63
2017-05-13T21:19:52.460Z,1010.67
2017-05-13T21:20:53.886Z,1010.63
2017-05-13T21:21:55.302Z,1010.65
2017-05-13T21:22:57.074Z,1010.64
2017-05-13T21:23:58.492Z,1010.69
2017-05-13T21:24:59.907Z,1010.72
2017-05-13T21:26:01.325Z,1010.72
2017-05-13T21:27:02.743Z,1010.73
2017-05-13T21:28:04.163Z,1010.73
2017-05-13T21:29:05.580Z,1010.73
2017-05-13T21:30:06.993Z,1010.75
2017-05-13T21:31:08.412Z,1010.76
2017-05-13T21:32:09.828Z,1010.75
2017-05-13T21:33:11.247Z,1010.77
2017-05-13T21:34:12.665Z,1010.78
2017-05-13T21:35:14.103Z,1010.79
2017-05-13T21:36:15.521Z,1010.81
2017-05-13T21:37:16.952Z,1010.85
2017-05-13T21:38:18.366Z,1010.84
2017-05-13T21:39:19.782Z,1010.83
2017-05-13T21:40:21.198Z,1010.84
2017-05-13T21:41:22.613Z,1010.84
2017-05-13T21:42:24.032Z,1010.84
2017-05-13T21:43:25.452Z,1010.84
2017-05-13T21:44:26.866Z,1010.88
2017-05-13T21:45:28.336Z,1010.89
2017-05-13T21:46:29.754Z,1010.91
2017-05-13T21:47:31.190Z,1010.95
2017-05-13T21:48:32.606Z,1010.95
2017-05-13T21:49:34.027Z,1010.92
2017-05-13T21:50:35.446Z,1010.94
2017-05-13T21:51:36.865Z,1010.98
2017-05-13T21:52:38.278Z,1010.99
2017-05-13T21:53:39.693Z,1011.02
2017-05-13T21:54:41.111Z,1011.02
2017-05-13T21:55:42.528Z,1011.05
2017-05-13T21:56:43.947Z,1011.03
2017-05-13T21:57:45.365Z,1011.03
2017-05-13T21:58:46.781Z,1011.07
2017-05-13T21:59:48.197Z,1011.07
2017-05-13T22:00:49.617Z,1011.07
2017-05-13T22:01:51.029Z,1011.12
2017-05-13T22:02:52.446Z,1011.13
2017-05-13T22:03:53.865Z,1011.14
2017-05-13T22:04:55.283Z,1011.19
2017-05-13T22:05:56.698Z,1011.11
2017-05-13T22:06:58.114Z,1011.11
2017-05-13T22:07:59.530Z,1011.14
2017-05-13T22:09:00.945Z,1011.16
2017-05-13T22:10:02.370Z,1011.15
2017-05-13T22:11:03.782Z,1011.17
2017-05-13T22:12:05.200Z,1011.18
2017-05-13T22:13:06.615Z,1011.17
2017-05-13T22:14:08.033Z,1011.19
2017-05-13T22:15:09.452Z,1011.23
2017-05-13T22:16:10.868Z,1011.23
2017-05-13T22:17:12.285Z,1011.24
2017-05-13T22:18:13.703Z,1011.27
2017-05-13T22:19:15.122Z,1011.24
2017-05-13T22:20:16.554Z,1011.26
2017-05-13T22:21:17.977Z,1011.26
2017-05-13T22:22:19.392Z,1011.25
2017-05-13T22:23:20.809Z,1011.27
2017-05-13T22:24:22.225Z,1011.30
2017-05-13T22:25:23.651Z,1011.30
2017-05-13T22:26:25.064Z,1011.31
2017-05-13T22:27:26.476Z,1011.31
2017-05-13T22:28:27.892Z,1011.33
2017-05-13T22:29:29.308Z,1011.33
2017-05-13T22:30:30.728Z,1011.37
2017-05-13T22:31:32.145Z,1011.35
2017-05-13T22:32:33.564Z,1011.38
2017-05-13T22:33:34.983Z,1011.41
2017-05-13T22:34:36.399Z,1011.41
2017-05-13T22:35:37.814Z,1011.40
2017-05-13T22:36:39.232Z,1011.43
2017-05-13T22:37:40.650Z,1011.43
2017-05-13T22:38:42.065Z,1011.42
2017-05-13T22:39:43.487Z,1011.43
2017-05-13T22:40:44.906Z,1011.44
2017-05-13T22:41:46.318Z,1011.43
2017-05-13T22:42:47.735Z,1011.43
2017-05-13T22:43:49.152Z,1011.38
2017-05-13T22:44:50.568Z,1011.40
2017-05-13T22:45:51.987Z,1011.41
2017-05-13T22:46:53.405Z,1011.44
2017-05-13T22:47:54.825Z,1011.45
2017-05-13T22:48:56.240Z,1011.43
2017-05-13T22:49:57.657Z,1011.50
2017-05-13T22:50:59.073Z,1011.49
2017-05-13T22:52:00.493Z,1011.47
2017-05-13T22:53:01.911Z,1011.48
2017-05-13T22:54:03.332Z,1011.50
2017-05-13T22:55:04.751Z,1011.52
2017-05-13T22:56:06.169Z,1011.53
2017-05-13T22:57:07.584Z,1011.58
2017-05-13T22:58:08.996Z,1011.61
2017-05-13T22:59:10.412Z,1011.63
2017-05-13T23:00:11.830Z,1011.63
2017-05-13T23:01:13.248Z,1011.65
2017-05-13T23:02:14.669Z,1011.67
2017-05-13T23:03:16.083Z,1011.67
2017-05-13T23:04:17.502Z,1011.67
2017-05-13T23:05:18.917Z,1011.65
2017-05-13T23:06:20.334Z,1011.66
2017-05-13T23:07:21.757Z,1011.68
2017-05-13T23:08:23.177Z,1011.67
2017-05-13T23:09:24.600Z,1011.66
2017-05-13T23:10:26.010Z,1011.68
2017-05-13T23:11:27.426Z,1011.67
2017-05-13T23:12:28.844Z,1011.71
2017-05-13T23:13:30.258Z,1011.67
2017-05-13T23:14:31.677Z,1011.69
2017-05-13T23:15:33.098Z,1011.62
2017-05-13T23:16:34.522Z,1011.66
2017-05-13T23:17:35.928Z,1011.62
2017-05-13T23:18:37.348Z,1011.61
2017-05-13T23:19:38.764Z,1011.61
2017-05-13T23:20:40.180Z,1011.61
2017-05-13T23:21:41.599Z,1011.64
2017-05-13T23:22:43.017Z,1011.66
2017-05-13T23:23:44.437Z,1011.66
2017-05-13T23:24:45.854Z,1011.68
2017-05-13T23:25:47.269Z,1011.68
2017-05-13T23:26:48.684Z,1011.65
2017-05-13T23:27:50.107Z,1011.64
2017-05-13T23:28:51.522Z,1011.62
2017-05-13T23:29:52.941Z,1011.63
2017-05-13T23:30:54.360Z,1011.60
2017-05-13T23:31:55.773Z,1011.63
2017-05-13T23:32:57.189Z,1011.64
2017-05-13T23:33:58.605Z,1011.64
2017-05-13T23:35:00.022Z,1011.65
2017-05-13T23:36:01.439Z,1011.64
2017-05-13T23:37:02.860Z,1011.66
2017-05-13T23:38:04.279Z,1011.67
2017-05-13T23:39:05.696Z,1011.65
2017-05-13T23:40:07.115Z,1011.67
2017-05-13T23:41:08.529Z,1011.68
2017-05-13T23:42:09.944Z,1011.73
2017-05-13T23:43:11.362Z,1011.71
2017-05-13T23:44:12.782Z,1011.72
2017-05-13T23:45:14.200Z,1011.74
2017-05-13T23:46:15.616Z,1011.75
2017-05-13T23:47:17.031Z,1011.76
2017-05-13T23:48:18.449Z,1011.75
2017-05-13T23:49:19.866Z,1011.74
2017-05-13T23:50:21.286Z,1011.75
2017-05-13T23:51:22.704Z,1011.76
2017-05-13T23:52:24.127Z,1011.76
2017-05-13T23:53:25.539Z,1011.75
2017-05-13T23:54:26.955Z,1011.76
2017-05-13T23:55:28.371Z,1011.77
2017-05-13T23:56:29.788Z,1011.81
2017-05-13T23:57:31.206Z,1011.77
2017-05-13T23:58:32.626Z,1011.78
2017-05-13T23:59:34.043Z,1011.79
